Terminal Aerodrome Forecast
Issued by NWS Cleveland, OH

Home | Current Version | Previous Version | Text Only | Print | Product List | Glossary Off
Versions: 1 2 3 4 5 6 7 8 9 10 11 12 13 14 15 16 17 18 19 20 21 22 23 24 25 26 27 28 29 30

623
FTUS41 KCLE 260253 AAB
TAFCLE
TAF AMD
KCLE 260253Z 2603/2706 VRB05KT P6SM BKN070 BKN100
     FM260600 21010KT P6SM -SHRA VCTS OVC050CB
      TEMPO 2607/2609 3SM -TSRA BR OVC050CB
     FM261000 23014KT P6SM OVC030
     FM261400 31012KT P6SM OVC020
     FM261600 03015KT P6SM OVC010
      TEMPO 2616/2619 OVC009
     FM270200 03010KT P6SM SCT020=

USA.gov is the U.S. government's official web portal to all federal, state and local government web resources and services.